Aérodrome :
LOGIN :

S'inscrire | Disclaimer

   EN    FR    IT 

 










Légende :    VFR   VFR Marginal   IFR   IFR Intensif   IFR Très Intensif
Visi : 
Plafond : 
>= 8 km
>= 3000ft
5 à 8 km
1000 à 3000 ft
1500m à 5 km
500 à 1000 ft
800 à 1500m
200 à 500 ft
< 800m
< 200 ft
Symboles :   Orages  Brouillard  Fortes neiges  Fortes précipitations  Vent > 20 kt
SIGMETs :   Divers  Orages  Givrage  Turbulence  Onde Orograph.  Cendres Volcan.






- Altitude de l'aérodrome : 161 ft
- Code IATA : PMF


LIMP - Parma

DERNIER METAR :
  • 060950Z 13008KT 040V180 CAVOK 24/22 Q1006

METARs EXPIRÉS :
  • 060850Z 15006KT 100V230 CAVOK 24/21 Q1006
  • 060750Z 13003KT 080V230 CAVOK 23/20 Q1006

TAF TAF LIMP
Valide du 06 à 07h jusqu'au 07 à 06h UTC


060642Z 0607/0706 VRB05KT CAVOK
BECMG 0611/0613 22010KT



MET'MAP, la Météo Aéronautique d'un coup d'oeil ! - Copyright ORBIFLY Décembre 2007 - Disclaimer

ORBIFLY MET'MAP TEAM :

Programmation & Développement : Alexandra Zaïnal
Sur une idée originale de : Baudouin d'Aumeries
Assistance à la programmation : Marc-Olivier Méhu
Soutien technique & logistique : Manuel Goepfert

Contact : metmap@orbifly.com




SOURCES & CREDITS :

   NOAA